sensor_id;sensor_type;location;lat;lon;timestamp;P1;durP1;ratioP1;P2;durP2;ratioP2
1404;SDS011;697;51.114;6.542;2023-04-24T00:00:48;1.97;;;1.63;;
1404;SDS011;697;51.114;6.542;2023-04-24T00:03:17;1.43;;;1.30;;
1404;SDS011;697;51.114;6.542;2023-04-24T00:05:46;1.53;;;1.40;;
1404;SDS011;697;51.114;6.542;2023-04-24T00:08:12;2.03;;;1.47;;
1404;SDS011;697;51.114;6.542;2023-04-24T00:10:39;1.60;;;1.50;;
1404;SDS011;697;51.114;6.542;2023-04-24T00:13:06;5.07;;;2.10;;
1404;SDS011;697;51.114;6.542;2023-04-24T00:15:33;1.80;;;1.70;;
1404;SDS011;697;51.114;6.542;2023-04-24T00:18:00;1.60;;;1.43;;
1404;SDS011;697;51.114;6.542;2023-04-24T00:20:28;2.20;;;1.50;;
1404;SDS011;697;51.114;6.542;2023-04-24T00:22:57;2.37;;;2.17;;
1404;SDS011;697;51.114;6.542;2023-04-24T00:25:24;1.67;;;1.57;;
1404;SDS011;697;51.114;6.542;2023-04-24T00:27:50;2.03;;;1.83;;
1404;SDS011;697;51.114;6.542;2023-04-24T00:30:17;2.63;;;1.80;;
1404;SDS011;697;51.114;6.542;2023-04-24T00:32:44;5.10;;;2.30;;
1404;SDS011;697;51.114;6.542;2023-04-24T00:35:11;2.20;;;2.00;;
1404;SDS011;697;51.114;6.542;2023-04-24T00:37:39;2.83;;;2.40;;
1404;SDS011;697;51.114;6.542;2023-04-24T00:40:06;6.10;;;2.53;;
1404;SDS011;697;51.114;6.542;2023-04-24T00:42:33;2.47;;;1.90;;
1404;SDS011;697;51.114;6.542;2023-04-24T00:45:00;2.33;;;2.10;;
1404;SDS011;697;51.114;6.542;2023-04-24T00:47:28;4.03;;;2.53;;
1404;SDS011;697;51.114;6.542;2023-04-24T00:49:55;4.67;;;2.57;;
1404;SDS011;697;51.114;6.542;2023-04-24T00:52:22;3.93;;;3.17;;
1404;SDS011;697;51.114;6.542;2023-04-24T00:54:50;6.23;;;2.90;;
1404;SDS011;697;51.114;6.542;2023-04-24T00:57:17;3.93;;;3.40;;
1404;SDS011;697;51.114;6.542;2023-04-24T00:59:44;5.60;;;4.03;;
1404;SDS011;697;51.114;6.542;2023-04-24T01:02:11;4.83;;;3.83;;
1404;SDS011;697;51.114;6.542;2023-04-24T01:04:40;6.80;;;4.87;;
1404;SDS011;697;51.114;6.542;2023-04-24T01:07:07;6.10;;;4.50;;
1404;SDS011;697;51.114;6.542;2023-04-24T01:09:36;5.17;;;4.40;;
1404;SDS011;697;51.114;6.542;2023-04-24T01:12:05;8.53;;;4.70;;
1404;SDS011;697;51.114;6.542;2023-04-24T01:14:32;9.30;;;4.60;;
1404;SDS011;697;51.114;6.542;2023-04-24T01:16:59;6.07;;;5.23;;
1404;SDS011;697;51.114;6.542;2023-04-24T01:19:26;7.03;;;5.37;;
1404;SDS011;697;51.114;6.542;2023-04-24T01:21:53;7.97;;;7.17;;
1404;SDS011;697;51.114;6.542;2023-04-24T01:24:24;6.90;;;6.10;;
1404;SDS011;697;51.114;6.542;2023-04-24T01:26:51;7.03;;;6.00;;
1404;SDS011;697;51.114;6.542;2023-04-24T01:29:18;8.00;;;5.67;;
1404;SDS011;697;51.114;6.542;2023-04-24T01:31:45;9.37;;;6.90;;
1404;SDS011;697;51.114;6.542;2023-04-24T01:34:12;8.23;;;7.43;;
1404;SDS011;697;51.114;6.542;2023-04-24T01:36:39;8.30;;;7.37;;
1404;SDS011;697;51.114;6.542;2023-04-24T01:39:07;8.70;;;7.90;;
1404;SDS011;697;51.114;6.542;2023-04-24T01:41:35;7.70;;;7.00;;
1404;SDS011;697;51.114;6.542;2023-04-24T01:44:02;12.43;;;8.30;;
1404;SDS011;697;51.114;6.542;2023-04-24T01:46:28;10.93;;;8.20;;
1404;SDS011;697;51.114;6.542;2023-04-24T01:48:56;8.90;;;8.00;;
1404;SDS011;697;51.114;6.542;2023-04-24T01:51:25;9.47;;;8.10;;
1404;SDS011;697;51.114;6.542;2023-04-24T01:53:52;9.07;;;8.10;;
1404;SDS011;697;51.114;6.542;2023-04-24T01:56:19;10.67;;;8.50;;
1404;SDS011;697;51.114;6.542;2023-04-24T01:58:49;9.90;;;7.80;;
1404;SDS011;697;51.114;6.542;2023-04-24T02:01:17;12.37;;;8.37;;
1404;SDS011;697;51.114;6.542;2023-04-24T02:03:45;13.10;;;9.03;;
1404;SDS011;697;51.114;6.542;2023-04-24T02:06:11;12.53;;;8.57;;
1404;SDS011;697;51.114;6.542;2023-04-24T02:08:38;13.33;;;9.23;;
1404;SDS011;697;51.114;6.542;2023-04-24T02:11:05;9.60;;;8.33;;
1404;SDS011;697;51.114;6.542;2023-04-24T02:13:31;10.13;;;8.07;;
1404;SDS011;697;51.114;6.542;2023-04-24T02:15:59;11.37;;;8.50;;
1404;SDS011;697;51.114;6.542;2023-04-24T02:18:26;15.00;;;9.50;;
1404;SDS011;697;51.114;6.542;2023-04-24T02:20:53;11.33;;;9.20;;
1404;SDS011;697;51.114;6.542;2023-04-24T02:23:20;10.77;;;8.97;;
1404;SDS011;697;51.114;6.542;2023-04-24T02:25:47;14.90;;;10.47;;
1404;SDS011;697;51.114;6.542;2023-04-24T02:28:13;15.73;;;9.80;;
1404;SDS011;697;51.114;6.542;2023-04-24T02:30:40;12.20;;;9.90;;
1404;SDS011;697;51.114;6.542;2023-04-24T02:33:08;12.23;;;10.27;;
1404;SDS011;697;51.114;6.542;2023-04-24T02:35:35;10.13;;;8.93;;
1404;SDS011;697;51.114;6.542;2023-04-24T02:38:01;11.30;;;9.50;;
1404;SDS011;697;51.114;6.542;2023-04-24T02:40:28;11.20;;;9.50;;
1404;SDS011;697;51.114;6.542;2023-04-24T02:42:55;17.90;;;10.10;;
1404;SDS011;697;51.114;6.542;2023-04-24T02:45:22;14.33;;;8.90;;
1404;SDS011;697;51.114;6.542;2023-04-24T02:47:49;16.10;;;11.73;;
1404;SDS011;697;51.114;6.542;2023-04-24T02:50:17;13.13;;;8.80;;
1404;SDS011;697;51.114;6.542;2023-04-24T02:52:44;14.43;;;8.57;;
1404;SDS011;697;51.114;6.542;2023-04-24T02:55:10;9.60;;;8.60;;
1404;SDS011;697;51.114;6.542;2023-04-24T02:57:37;11.97;;;9.43;;
1404;SDS011;697;51.114;6.542;2023-04-24T03:00:04;11.20;;;8.77;;
1404;SDS011;697;51.114;6.542;2023-04-24T03:02:34;13.73;;;9.80;;
1404;SDS011;697;51.114;6.542;2023-04-24T03:05:00;15.23;;;8.83;;
1404;SDS011;697;51.114;6.542;2023-04-24T03:07:29;11.07;;;8.70;;
1404;SDS011;697;51.114;6.542;2023-04-24T03:09:57;17.50;;;8.70;;
1404;SDS011;697;51.114;6.542;2023-04-24T03:12:24;10.00;;;9.00;;
1404;SDS011;697;51.114;6.542;2023-04-24T03:14:50;10.33;;;8.60;;
1404;SDS011;697;51.114;6.542;2023-04-24T03:17:17;10.40;;;8.73;;
1404;SDS011;697;51.114;6.542;2023-04-24T03:19:44;12.90;;;9.63;;
1404;SDS011;697;51.114;6.542;2023-04-24T03:22:11;10.63;;;9.53;;
1404;SDS011;697;51.114;6.542;2023-04-24T03:24:39;11.53;;;9.03;;
1404;SDS011;697;51.114;6.542;2023-04-24T03:27:06;9.73;;;8.73;;
1404;SDS011;697;51.114;6.542;2023-04-24T03:29:32;17.37;;;9.60;;
1404;SDS011;697;51.114;6.542;2023-04-24T03:31:59;10.67;;;9.47;;
1404;SDS011;697;51.114;6.542;2023-04-24T03:34:26;14.00;;;9.40;;
1404;SDS011;697;51.114;6.542;2023-04-24T03:36:53;15.83;;;9.87;;
1404;SDS011;697;51.114;6.542;2023-04-24T03:39:19;10.67;;;9.47;;
1404;SDS011;697;51.114;6.542;2023-04-24T03:41:47;12.50;;;9.23;;
1404;SDS011;697;51.114;6.542;2023-04-24T03:44:14;11.70;;;9.57;;
1404;SDS011;697;51.114;6.542;2023-04-24T03:46:41;13.60;;;9.93;;
1404;SDS011;697;51.114;6.542;2023-04-24T03:49:07;17.57;;;9.70;;
1404;SDS011;697;51.114;6.542;2023-04-24T03:51:34;14.47;;;9.80;;
1404;SDS011;697;51.114;6.542;2023-04-24T03:54:01;10.87;;;9.27;;
1404;SDS011;697;51.114;6.542;2023-04-24T03:56:28;10.33;;;9.17;;
1404;SDS011;697;51.114;6.542;2023-04-24T03:58:56;12.33;;;9.30;;
1404;SDS011;697;51.114;6.542;2023-04-24T04:01:23;10.80;;;9.03;;
1404;SDS011;697;51.114;6.542;2023-04-24T04:03:50;15.07;;;9.70;;
1404;SDS011;697;51.114;6.542;2023-04-24T04:06:16;9.37;;;8.10;;
1404;SDS011;697;51.114;6.542;2023-04-24T04:08:44;11.70;;;8.57;;
1404;SDS011;697;51.114;6.542;2023-04-24T04:11:11;10.17;;;8.00;;
1404;SDS011;697;51.114;6.542;2023-04-24T04:13:38;9.10;;;7.53;;
1404;SDS011;697;51.114;6.542;2023-04-24T04:16:06;13.40;;;9.10;;
1404;SDS011;697;51.114;6.542;2023-04-24T04:18:34;8.20;;;7.30;;
1404;SDS011;697;51.114;6.542;2023-04-24T04:21:01;9.47;;;8.40;;
1404;SDS011;697;51.114;6.542;2023-04-24T04:23:27;11.33;;;7.87;;
1404;SDS011;697;51.114;6.542;2023-04-24T04:25:54;8.73;;;7.90;;
1404;SDS011;697;51.114;6.542;2023-04-24T04:28:21;8.90;;;7.70;;
1404;SDS011;697;51.114;6.542;2023-04-24T04:30:49;10.00;;;7.63;;
1404;SDS011;697;51.114;6.542;2023-04-24T04:33:20;9.20;;;7.70;;
1404;SDS011;697;51.114;6.542;2023-04-24T04:35:46;10.37;;;9.30;;
1404;SDS011;697;51.114;6.542;2023-04-24T04:38:14;9.17;;;7.80;;
1404;SDS011;697;51.114;6.542;2023-04-24T04:40:41;10.27;;;7.80;;
1404;SDS011;697;51.114;6.542;2023-04-24T04:43:08;7.03;;;6.30;;
1404;SDS011;697;51.114;6.542;2023-04-24T04:45:35;9.00;;;7.47;;
1404;SDS011;697;51.114;6.542;2023-04-24T04:48:04;9.50;;;6.70;;
1404;SDS011;697;51.114;6.542;2023-04-24T04:50:33;9.57;;;7.13;;
1404;SDS011;697;51.114;6.542;2023-04-24T04:53:00;7.37;;;6.67;;
1404;SDS011;697;51.114;6.542;2023-04-24T04:55:27;9.30;;;7.10;;
1404;SDS011;697;51.114;6.542;2023-04-24T04:57:53;12.13;;;6.97;;
1404;SDS011;697;51.114;6.542;2023-04-24T05:00:21;8.23;;;7.40;;
1404;SDS011;697;51.114;6.542;2023-04-24T05:02:49;7.90;;;7.10;;
1404;SDS011;697;51.114;6.542;2023-04-24T05:05:16;7.93;;;7.13;;
1404;SDS011;697;51.114;6.542;2023-04-24T05:07:44;7.10;;;6.40;;
1404;SDS011;697;51.114;6.542;2023-04-24T05:10:11;7.47;;;6.67;;
1404;SDS011;697;51.114;6.542;2023-04-24T05:12:38;8.90;;;7.40;;
1404;SDS011;697;51.114;6.542;2023-04-24T05:15:05;8.03;;;7.17;;
1404;SDS011;697;51.114;6.542;2023-04-24T05:17:32;7.53;;;6.70;;
1404;SDS011;697;51.114;6.542;2023-04-24T05:19:59;7.53;;;6.70;;
1404;SDS011;697;51.114;6.542;2023-04-24T05:22:26;9.03;;;7.53;;
1404;SDS011;697;51.114;6.542;2023-04-24T05:24:54;9.17;;;7.10;;
1404;SDS011;697;51.114;6.542;2023-04-24T05:27:20;9.60;;;7.97;;
1404;SDS011;697;51.114;6.542;2023-04-24T05:29:47;9.03;;;7.30;;
1404;SDS011;697;51.114;6.542;2023-04-24T05:32:14;10.40;;;7.50;;
1404;SDS011;697;51.114;6.542;2023-04-24T05:34:41;7.50;;;6.70;;
1404;SDS011;697;51.114;6.542;2023-04-24T05:37:07;7.33;;;6.47;;
1404;SDS011;697;51.114;6.542;2023-04-24T05:39:35;7.40;;;6.70;;
1404;SDS011;697;51.114;6.542;2023-04-24T05:42:03;8.00;;;6.83;;
1404;SDS011;697;51.114;6.542;2023-04-24T05:44:30;6.90;;;6.20;;
1404;SDS011;697;51.114;6.542;2023-04-24T05:46:58;7.47;;;6.63;;
1404;SDS011;697;51.114;6.542;2023-04-24T05:49:25;8.07;;;6.90;;
1404;SDS011;697;51.114;6.542;2023-04-24T05:51:52;6.80;;;6.10;;
1404;SDS011;697;51.114;6.542;2023-04-24T05:54:19;11.17;;;5.63;;
1404;SDS011;697;51.114;6.542;2023-04-24T05:56:45;5.60;;;5.10;;
1404;SDS011;697;51.114;6.542;2023-04-24T05:59:13;8.20;;;5.17;;
1404;SDS011;697;51.114;6.542;2023-04-24T06:01:40;5.73;;;5.17;;
1404;SDS011;697;51.114;6.542;2023-04-24T06:04:07;5.93;;;5.33;;
1404;SDS011;697;51.114;6.542;2023-04-24T06:06:34;6.37;;;5.33;;
1404;SDS011;697;51.114;6.542;2023-04-24T06:09:01;5.03;;;4.53;;
1404;SDS011;697;51.114;6.542;2023-04-24T06:11:28;5.70;;;5.20;;
1404;SDS011;697;51.114;6.542;2023-04-24T06:13:55;5.40;;;4.90;;
1404;SDS011;697;51.114;6.542;2023-04-24T06:16:23;6.03;;;4.97;;
1404;SDS011;697;51.114;6.542;2023-04-24T06:18:50;6.27;;;4.83;;
1404;SDS011;697;51.114;6.542;2023-04-24T06:21:17;5.23;;;4.83;;
1404;SDS011;697;51.114;6.542;2023-04-24T06:23:43;6.00;;;4.57;;
1404;SDS011;697;51.114;6.542;2023-04-24T06:26:11;6.97;;;4.67;;
1404;SDS011;697;51.114;6.542;2023-04-24T06:28:38;6.90;;;5.13;;
1404;SDS011;697;51.114;6.542;2023-04-24T06:31:04;8.23;;;5.33;;
1404;SDS011;697;51.114;6.542;2023-04-24T06:33:32;6.73;;;4.57;;
1404;SDS011;697;51.114;6.542;2023-04-24T06:35:59;5.03;;;4.63;;
1404;SDS011;697;51.114;6.542;2023-04-24T06:38:26;5.80;;;4.90;;
1404;SDS011;697;51.114;6.542;2023-04-24T06:40:54;4.77;;;4.10;;
1404;SDS011;697;51.114;6.542;2023-04-24T06:43:21;5.57;;;5.03;;
1404;SDS011;697;51.114;6.542;2023-04-24T06:45:47;4.40;;;4.00;;
1404;SDS011;697;51.114;6.542;2023-04-24T06:48:14;4.13;;;3.63;;
1404;SDS011;697;51.114;6.542;2023-04-24T06:50:43;4.77;;;4.33;;
1404;SDS011;697;51.114;6.542;2023-04-24T06:53:10;3.37;;;3.03;;
1404;SDS011;697;51.114;6.542;2023-04-24T06:55:39;3.20;;;2.90;;
1404;SDS011;697;51.114;6.542;2023-04-24T06:58:06;2.93;;;2.73;;
1404;SDS011;697;51.114;6.542;2023-04-24T07:00:33;8.03;;;3.43;;
1404;SDS011;697;51.114;6.542;2023-04-24T07:02:59;3.33;;;3.07;;
1404;SDS011;697;51.114;6.542;2023-04-24T07:05:26;3.20;;;2.90;;
1404;SDS011;697;51.114;6.542;2023-04-24T07:07:54;2.87;;;2.37;;
1404;SDS011;697;51.114;6.542;2023-04-24T07:10:23;2.27;;;2.07;;
1404;SDS011;697;51.114;6.542;2023-04-24T07:12:52;2.50;;;1.73;;
1404;SDS011;697;51.114;6.542;2023-04-24T07:15:19;3.60;;;2.50;;
1404;SDS011;697;51.114;6.542;2023-04-24T07:17:45;2.63;;;2.10;;
1404;SDS011;697;51.114;6.542;2023-04-24T07:20:12;2.57;;;2.10;;
1404;SDS011;697;51.114;6.542;2023-04-24T07:22:40;2.20;;;2.10;;
1404;SDS011;697;51.114;6.542;2023-04-24T07:25:09;1.60;;;1.50;;
1404;SDS011;697;51.114;6.542;2023-04-24T07:27:36;1.60;;;1.50;;
1404;SDS011;697;51.114;6.542;2023-04-24T07:30:03;1.00;;;0.90;;
1404;SDS011;697;51.114;6.542;2023-04-24T07:32:31;1.10;;;0.73;;
1404;SDS011;697;51.114;6.542;2023-04-24T07:34:58;5.03;;;0.70;;
1404;SDS011;697;51.114;6.542;2023-04-24T07:37:25;0.60;;;0.50;;
1404;SDS011;697;51.114;6.542;2023-04-24T07:39:52;0.70;;;0.53;;
1404;SDS011;697;51.114;6.542;2023-04-24T07:42:20;0.53;;;0.53;;
1404;SDS011;697;51.114;6.542;2023-04-24T07:44:46;1.23;;;1.10;;
1404;SDS011;697;51.114;6.542;2023-04-24T07:47:13;0.73;;;0.50;;
1404;SDS011;697;51.114;6.542;2023-04-24T07:49:40;1.03;;;0.47;;
1404;SDS011;697;51.114;6.542;2023-04-24T07:52:07;1.70;;;0.53;;
1404;SDS011;697;51.114;6.542;2023-04-24T07:54:34;0.67;;;0.67;;
1404;SDS011;697;51.114;6.542;2023-04-24T07:57:02;1.00;;;0.90;;
1404;SDS011;697;51.114;6.542;2023-04-24T07:59:30;2.30;;;1.27;;
1404;SDS011;697;51.114;6.542;2023-04-24T08:01:57;3.40;;;2.37;;
1404;SDS011;697;51.114;6.542;2023-04-24T08:04:23;3.50;;;2.70;;
1404;SDS011;697;51.114;6.542;2023-04-24T08:06:50;3.40;;;3.10;;
1404;SDS011;697;51.114;6.542;2023-04-24T08:09:16;4.03;;;3.63;;
1404;SDS011;697;51.114;6.542;2023-04-24T08:11:43;4.57;;;4.00;;
1404;SDS011;697;51.114;6.542;2023-04-24T08:14:10;4.53;;;4.13;;
1404;SDS011;697;51.114;6.542;2023-04-24T08:16:39;5.20;;;4.07;;
1404;SDS011;697;51.114;6.542;2023-04-24T08:19:06;4.93;;;4.20;;
1404;SDS011;697;51.114;6.542;2023-04-24T08:21:33;3.97;;;3.67;;
1404;SDS011;697;51.114;6.542;2023-04-24T08:24:00;4.17;;;3.77;;
1404;SDS011;697;51.114;6.542;2023-04-24T08:26:30;7.63;;;4.57;;
1404;SDS011;697;51.114;6.542;2023-04-24T08:28:56;3.90;;;3.50;;
1404;SDS011;697;51.114;6.542;2023-04-24T08:31:23;4.73;;;4.33;;
1404;SDS011;697;51.114;6.542;2023-04-24T08:33:52;5.30;;;4.80;;
1404;SDS011;697;51.114;6.542;2023-04-24T08:36:19;4.93;;;4.43;;
1404;SDS011;697;51.114;6.542;2023-04-24T08:38:45;6.60;;;5.00;;
1404;SDS011;697;51.114;6.542;2023-04-24T08:41:12;4.13;;;3.73;;
1404;SDS011;697;51.114;6.542;2023-04-24T08:43:41;7.20;;;5.00;;
1404;SDS011;697;51.114;6.542;2023-04-24T08:46:08;5.53;;;4.20;;
1404;SDS011;697;51.114;6.542;2023-04-24T08:48:36;5.70;;;4.27;;
1404;SDS011;697;51.114;6.542;2023-04-24T08:51:06;7.07;;;4.77;;
1404;SDS011;697;51.114;6.542;2023-04-24T08:53:34;5.70;;;4.33;;
1404;SDS011;697;51.114;6.542;2023-04-24T08:56:01;6.20;;;4.07;;
1404;SDS011;697;51.114;6.542;2023-04-24T08:58:28;7.77;;;4.47;;
1404;SDS011;697;51.114;6.542;2023-04-24T09:00:56;5.87;;;4.63;;
1404;SDS011;697;51.114;6.542;2023-04-24T09:03:24;5.03;;;4.53;;
1404;SDS011;697;51.114;6.542;2023-04-24T09:05:52;5.27;;;4.77;;
1404;SDS011;697;51.114;6.542;2023-04-24T09:08:23;7.57;;;5.53;;
1404;SDS011;697;51.114;6.542;2023-04-24T09:10:51;13.07;;;5.73;;
1404;SDS011;697;51.114;6.542;2023-04-24T09:13:18;8.00;;;5.83;;
1404;SDS011;697;51.114;6.542;2023-04-24T09:15:45;8.97;;;6.13;;
1404;SDS011;697;51.114;6.542;2023-04-24T09:18:12;8.33;;;5.23;;
1404;SDS011;697;51.114;6.542;2023-04-24T09:23:26;10.67;;;6.60;;
1404;SDS011;697;51.114;6.542;2023-04-24T09:25:54;9.27;;;5.57;;
1404;SDS011;697;51.114;6.542;2023-04-24T09:28:24;8.37;;;6.53;;
1404;SDS011;697;51.114;6.542;2023-04-24T09:31:01;10.03;;;6.17;;
1404;SDS011;697;51.114;6.542;2023-04-24T09:33:29;7.80;;;7.10;;
1404;SDS011;697;51.114;6.542;2023-04-24T09:35:56;11.50;;;7.30;;
1404;SDS011;697;51.114;6.542;2023-04-24T09:38:31;9.93;;;7.90;;
1404;SDS011;697;51.114;6.542;2023-04-24T09:41:00;11.60;;;9.10;;
1404;SDS011;697;51.114;6.542;2023-04-24T09:43:28;9.20;;;7.13;;
1404;SDS011;697;51.114;6.542;2023-04-24T09:45:55;8.40;;;6.33;;
1404;SDS011;697;51.114;6.542;2023-04-24T09:48:29;11.37;;;6.30;;
1404;SDS011;697;51.114;6.542;2023-04-24T09:50:57;9.03;;;5.67;;
1404;SDS011;697;51.114;6.542;2023-04-24T09:53:24;8.77;;;5.90;;
1404;SDS011;697;51.114;6.542;2023-04-24T09:55:52;11.10;;;6.20;;
1404;SDS011;697;51.114;6.542;2023-04-24T09:58:24;12.17;;;5.67;;
1404;SDS011;697;51.114;6.542;2023-04-24T10:00:53;7.33;;;5.90;;
1404;SDS011;697;51.114;6.542;2023-04-24T10:03:23;9.30;;;5.60;;
1404;SDS011;697;51.114;6.542;2023-04-24T10:05:51;8.00;;;5.20;;
1404;SDS011;697;51.114;6.542;2023-04-24T10:08:18;8.83;;;5.97;;
1404;SDS011;697;51.114;6.542;2023-04-24T10:10:46;7.10;;;6.00;;
1404;SDS011;697;51.114;6.542;2023-04-24T10:13:14;10.23;;;4.40;;
1404;SDS011;697;51.114;6.542;2023-04-24T10:15:41;6.10;;;4.70;;
1404;SDS011;697;51.114;6.542;2023-04-24T10:18:09;11.57;;;4.90;;
1404;SDS011;697;51.114;6.542;2023-04-24T10:20:37;7.70;;;4.40;;
1404;SDS011;697;51.114;6.542;2023-04-24T10:23:05;6.23;;;4.70;;
1404;SDS011;697;51.114;6.542;2023-04-24T10:25:32;6.23;;;4.37;;
1404;SDS011;697;51.114;6.542;2023-04-24T10:28:01;8.83;;;4.30;;
1404;SDS011;697;51.114;6.542;2023-04-24T10:30:30;8.47;;;4.30;;
1404;SDS011;697;51.114;6.542;2023-04-24T10:32:59;8.73;;;3.80;;
1404;SDS011;697;51.114;6.542;2023-04-24T10:35:26;7.23;;;4.00;;
1404;SDS011;697;51.114;6.542;2023-04-24T10:37:57;8.73;;;4.00;;
1404;SDS011;697;51.114;6.542;2023-04-24T10:40:30;6.00;;;3.63;;
1404;SDS011;697;51.114;6.542;2023-04-24T10:42:58;6.87;;;4.10;;
1404;SDS011;697;51.114;6.542;2023-04-24T10:45:26;8.17;;;3.77;;
1404;SDS011;697;51.114;6.542;2023-04-24T10:47:54;9.37;;;4.30;;
1404;SDS011;697;51.114;6.542;2023-04-24T10:50:25;7.63;;;3.63;;
1404;SDS011;697;51.114;6.542;2023-04-24T10:52:52;9.40;;;3.93;;
1404;SDS011;697;51.114;6.542;2023-04-24T10:55:39;8.60;;;4.23;;
1404;SDS011;697;51.114;6.542;2023-04-24T10:58:07;9.37;;;3.67;;
1404;SDS011;697;51.114;6.542;2023-04-24T11:00:35;13.03;;;3.83;;
1404;SDS011;697;51.114;6.542;2023-04-24T11:03:05;9.73;;;3.70;;
1404;SDS011;697;51.114;6.542;2023-04-24T11:05:48;9.13;;;3.90;;
1404;SDS011;697;51.114;6.542;2023-04-24T11:08:21;7.10;;;3.63;;
1404;SDS011;697;51.114;6.542;2023-04-24T11:16:39;6.43;;;3.43;;
1404;SDS011;697;51.114;6.542;2023-04-24T11:19:20;6.33;;;4.00;;
1404;SDS011;697;51.114;6.542;2023-04-24T11:21:54;6.93;;;3.87;;
1404;SDS011;697;51.114;6.542;2023-04-24T11:24:32;8.97;;;3.50;;
1404;SDS011;697;51.114;6.542;2023-04-24T11:27:06;5.80;;;3.30;;
1404;SDS011;697;51.114;6.542;2023-04-24T11:29:42;6.73;;;3.80;;
1404;SDS011;697;51.114;6.542;2023-04-24T11:32:14;10.63;;;3.90;;
1404;SDS011;697;51.114;6.542;2023-04-24T11:34:47;10.33;;;3.57;;
1404;SDS011;697;51.114;6.542;2023-04-24T11:37:15;6.50;;;4.07;;
1404;SDS011;697;51.114;6.542;2023-04-24T11:39:41;8.13;;;3.90;;
1404;SDS011;697;51.114;6.542;2023-04-24T11:42:08;9.53;;;3.33;;
1404;SDS011;697;51.114;6.542;2023-04-24T11:44:35;6.20;;;3.50;;
1404;SDS011;697;51.114;6.542;2023-04-24T11:47:03;5.93;;;3.23;;
1404;SDS011;697;51.114;6.542;2023-04-24T11:49:30;7.50;;;3.17;;
1404;SDS011;697;51.114;6.542;2023-04-24T11:51:58;11.63;;;3.73;;
1404;SDS011;697;51.114;6.542;2023-04-24T11:54:26;8.53;;;3.00;;
1404;SDS011;697;51.114;6.542;2023-04-24T11:56:53;12.03;;;3.20;;
1404;SDS011;697;51.114;6.542;2023-04-24T11:59:21;7.30;;;2.90;;
1404;SDS011;697;51.114;6.542;2023-04-24T12:01:47;8.50;;;3.13;;
1404;SDS011;697;51.114;6.542;2023-04-24T12:04:15;4.90;;;2.73;;
1404;SDS011;697;51.114;6.542;2023-04-24T12:09:43;7.93;;;2.63;;
1404;SDS011;697;51.114;6.542;2023-04-24T12:12:11;7.87;;;2.33;;
1404;SDS011;697;51.114;6.542;2023-04-24T12:14:46;7.90;;;2.70;;
1404;SDS011;697;51.114;6.542;2023-04-24T12:17:14;4.53;;;2.90;;
1404;SDS011;697;51.114;6.542;2023-04-24T12:19:45;5.63;;;2.20;;
1404;SDS011;697;51.114;6.542;2023-04-24T12:22:13;6.20;;;2.73;;
1404;SDS011;697;51.114;6.542;2023-04-24T12:27:23;5.30;;;2.60;;
1404;SDS011;697;51.114;6.542;2023-04-24T12:29:53;6.33;;;2.90;;
1404;SDS011;697;51.114;6.542;2023-04-24T12:32:21;4.50;;;2.57;;
1404;SDS011;697;51.114;6.542;2023-04-24T12:34:49;3.97;;;2.80;;
1404;SDS011;697;51.114;6.542;2023-04-24T12:37:16;4.80;;;2.30;;
1404;SDS011;697;51.114;6.542;2023-04-24T12:39:44;4.63;;;2.30;;
1404;SDS011;697;51.114;6.542;2023-04-24T12:42:26;4.20;;;2.60;;
1404;SDS011;697;51.114;6.542;2023-04-24T12:44:55;5.57;;;2.70;;
1404;SDS011;697;51.114;6.542;2023-04-24T12:47:23;5.93;;;3.03;;
1404;SDS011;697;51.114;6.542;2023-04-24T12:49:50;2.70;;;2.37;;
1404;SDS011;697;51.114;6.542;2023-04-24T12:52:17;2.83;;;2.03;;
1404;SDS011;697;51.114;6.542;2023-04-24T12:54:44;2.53;;;2.10;;
1404;SDS011;697;51.114;6.542;2023-04-24T12:57:13;4.80;;;2.50;;
1404;SDS011;697;51.114;6.542;2023-04-24T12:59:39;3.33;;;2.47;;
1404;SDS011;697;51.114;6.542;2023-04-24T13:02:06;4.17;;;2.30;;
1404;SDS011;697;51.114;6.542;2023-04-24T13:04:34;5.60;;;3.03;;
1404;SDS011;697;51.114;6.542;2023-04-24T13:07:00;6.50;;;2.50;;
1404;SDS011;697;51.114;6.542;2023-04-24T13:09:27;4.97;;;2.57;;
1404;SDS011;697;51.114;6.542;2023-04-24T13:11:54;4.23;;;2.30;;
1404;SDS011;697;51.114;6.542;2023-04-24T13:14:22;5.57;;;2.13;;
1404;SDS011;697;51.114;6.542;2023-04-24T13:16:49;6.07;;;1.98;;
1404;SDS011;697;51.114;6.542;2023-04-24T13:19:16;2.73;;;2.10;;
1404;SDS011;697;51.114;6.542;2023-04-24T13:21:44;3.43;;;1.83;;
1404;SDS011;697;51.114;6.542;2023-04-24T13:24:10;7.23;;;2.20;;
1404;SDS011;697;51.114;6.542;2023-04-24T13:26:38;3.23;;;1.87;;
1404;SDS011;697;51.114;6.542;2023-04-24T13:29:04;4.70;;;2.50;;
1404;SDS011;697;51.114;6.542;2023-04-24T13:31:32;10.67;;;2.97;;
1404;SDS011;697;51.114;6.542;2023-04-24T13:33:59;5.43;;;2.53;;
1404;SDS011;697;51.114;6.542;2023-04-24T13:36:26;7.30;;;2.93;;
1404;SDS011;697;51.114;6.542;2023-04-24T13:38:52;6.17;;;2.23;;
1404;SDS011;697;51.114;6.542;2023-04-24T13:41:19;3.20;;;2.33;;
1404;SDS011;697;51.114;6.542;2023-04-24T13:43:46;5.73;;;3.23;;
1404;SDS011;697;51.114;6.542;2023-04-24T13:46:12;5.70;;;3.57;;
1404;SDS011;697;51.114;6.542;2023-04-24T13:48:40;6.53;;;3.03;;
1404;SDS011;697;51.114;6.542;2023-04-24T13:51:07;5.07;;;3.33;;
1404;SDS011;697;51.114;6.542;2023-04-24T13:53:34;5.70;;;2.77;;
1404;SDS011;697;51.114;6.542;2023-04-24T13:56:03;2.67;;;2.40;;
1404;SDS011;697;51.114;6.542;2023-04-24T13:58:30;4.20;;;2.20;;
1404;SDS011;697;51.114;6.542;2023-04-24T14:00:57;3.90;;;2.40;;
1404;SDS011;697;51.114;6.542;2023-04-24T14:03:23;4.10;;;2.40;;
1404;SDS011;697;51.114;6.542;2023-04-24T14:05:52;4.70;;;1.80;;
1404;SDS011;697;51.114;6.542;2023-04-24T14:08:18;5.27;;;2.13;;
1404;SDS011;697;51.114;6.542;2023-04-24T14:10:45;5.50;;;2.70;;
1404;SDS011;697;51.114;6.542;2023-04-24T14:13:12;5.70;;;2.10;;
1404;SDS011;697;51.114;6.542;2023-04-24T14:15:39;3.90;;;2.10;;
1404;SDS011;697;51.114;6.542;2023-04-24T14:18:06;4.40;;;2.30;;
1404;SDS011;697;51.114;6.542;2023-04-24T14:20:32;6.00;;;2.40;;
1404;SDS011;697;51.114;6.542;2023-04-24T14:23:00;4.27;;;2.80;;
1404;SDS011;697;51.114;6.542;2023-04-24T14:25:27;4.10;;;3.07;;
1404;SDS011;697;51.114;6.542;2023-04-24T14:27:54;2.30;;;1.83;;
1404;SDS011;697;51.114;6.542;2023-04-24T14:30:21;3.90;;;2.10;;
1404;SDS011;697;51.114;6.542;2023-04-24T14:32:48;2.63;;;1.63;;
1404;SDS011;697;51.114;6.542;2023-04-24T14:35:15;4.53;;;1.97;;
1404;SDS011;697;51.114;6.542;2023-04-24T14:37:42;3.60;;;2.00;;
1404;SDS011;697;51.114;6.542;2023-04-24T14:40:10;2.27;;;1.80;;
1404;SDS011;697;51.114;6.542;2023-04-24T14:42:37;3.10;;;1.83;;
1404;SDS011;697;51.114;6.542;2023-04-24T14:45:04;2.77;;;1.70;;
1404;SDS011;697;51.114;6.542;2023-04-24T14:47:32;5.10;;;1.70;;
1404;SDS011;697;51.114;6.542;2023-04-24T14:49:59;4.47;;;2.10;;
1404;SDS011;697;51.114;6.542;2023-04-24T14:52:26;5.07;;;1.80;;
1404;SDS011;697;51.114;6.542;2023-04-24T14:54:53;3.63;;;1.63;;
1404;SDS011;697;51.114;6.542;2023-04-24T14:57:21;2.97;;;1.57;;
1404;SDS011;697;51.114;6.542;2023-04-24T14:59:48;3.13;;;1.50;;
1404;SDS011;697;51.114;6.542;2023-04-24T15:02:15;2.43;;;1.53;;
1404;SDS011;697;51.114;6.542;2023-04-24T15:04:41;4.90;;;1.80;;
1404;SDS011;697;51.114;6.542;2023-04-24T15:07:08;2.00;;;1.40;;
1404;SDS011;697;51.114;6.542;2023-04-24T15:09:35;1.80;;;1.50;;
1404;SDS011;697;51.114;6.542;2023-04-24T15:12:01;4.03;;;1.83;;
1404;SDS011;697;51.114;6.542;2023-04-24T15:14:29;2.40;;;1.60;;
1404;SDS011;697;51.114;6.542;2023-04-24T15:16:56;2.23;;;1.70;;
1404;SDS011;697;51.114;6.542;2023-04-24T15:19:23;3.70;;;1.60;;
1404;SDS011;697;51.114;6.542;2023-04-24T15:21:50;4.07;;;1.63;;
1404;SDS011;697;51.114;6.542;2023-04-24T15:24:16;2.87;;;1.67;;
1404;SDS011;697;51.114;6.542;2023-04-24T15:26:43;1.93;;;1.73;;
1404;SDS011;697;51.114;6.542;2023-04-24T15:29:10;2.20;;;2.00;;
1404;SDS011;697;51.114;6.542;2023-04-24T15:31:38;4.47;;;1.93;;
1404;SDS011;697;51.114;6.542;2023-04-24T15:34:05;2.10;;;1.83;;
1404;SDS011;697;51.114;6.542;2023-04-24T15:36:32;2.03;;;1.63;;
1404;SDS011;697;51.114;6.542;2023-04-24T15:38:58;2.47;;;2.00;;
1404;SDS011;697;51.114;6.542;2023-04-24T15:41:26;2.50;;;2.30;;
1404;SDS011;697;51.114;6.542;2023-04-24T15:43:53;3.03;;;1.67;;